sensor_id;sensor_type;location;lat;lon;timestamp;P1;durP1;ratioP1;P2;durP2;ratioP2
77432;SDS011;66752;48.576;8.876;2023-03-31T00:00:10;6.50;;;1.90;;
77432;SDS011;66752;48.576;8.876;2023-03-31T00:02:37;5.53;;;2.20;;
77432;SDS011;66752;48.576;8.876;2023-03-31T00:05:07;6.57;;;2.25;;
77432;SDS011;66752;48.576;8.876;2023-03-31T00:07:33;5.53;;;1.98;;
77432;SDS011;66752;48.576;8.876;2023-03-31T00:10:02;11.05;;;3.40;;
77432;SDS011;66752;48.576;8.876;2023-03-31T00:12:28;11.15;;;3.13;;
77432;SDS011;66752;48.576;8.876;2023-03-31T00:14:54;8.77;;;3.78;;
77432;SDS011;66752;48.576;8.876;2023-03-31T00:17:20;7.43;;;3.20;;
77432;SDS011;66752;48.576;8.876;2023-03-31T00:19:46;7.28;;;3.20;;
77432;SDS011;66752;48.576;8.876;2023-03-31T00:22:14;7.13;;;3.03;;
77432;SDS011;66752;48.576;8.876;2023-03-31T00:24:42;6.70;;;3.40;;
77432;SDS011;66752;48.576;8.876;2023-03-31T00:27:08;8.50;;;3.88;;
77432;SDS011;66752;48.576;8.876;2023-03-31T00:29:35;10.80;;;4.70;;
77432;SDS011;66752;48.576;8.876;2023-03-31T00:32:06;15.73;;;6.22;;
77432;SDS011;66752;48.576;8.876;2023-03-31T00:34:32;14.52;;;5.97;;
77432;SDS011;66752;48.576;8.876;2023-03-31T00:36:58;12.45;;;5.43;;
77432;SDS011;66752;48.576;8.876;2023-03-31T00:39:26;12.88;;;4.65;;
77432;SDS011;66752;48.576;8.876;2023-03-31T00:41:57;10.27;;;4.32;;
77432;SDS011;66752;48.576;8.876;2023-03-31T00:44:23;8.50;;;3.70;;
77432;SDS011;66752;48.576;8.876;2023-03-31T00:46:51;7.00;;;2.90;;
77432;SDS011;66752;48.576;8.876;2023-03-31T00:49:20;7.57;;;3.03;;
77432;SDS011;66752;48.576;8.876;2023-03-31T00:51:47;7.50;;;3.10;;
77432;SDS011;66752;48.576;8.876;2023-03-31T00:54:13;8.40;;;2.92;;
77432;SDS011;66752;48.576;8.876;2023-03-31T00:56:41;8.25;;;2.45;;
77432;SDS011;66752;48.576;8.876;2023-03-31T00:59:10;10.13;;;2.97;;
77432;SDS011;66752;48.576;8.876;2023-03-31T01:01:37;5.75;;;2.75;;
77432;SDS011;66752;48.576;8.876;2023-03-31T01:04:06;7.15;;;2.70;;
77432;SDS011;66752;48.576;8.876;2023-03-31T01:06:33;7.05;;;2.20;;
77432;SDS011;66752;48.576;8.876;2023-03-31T01:09:01;5.93;;;2.10;;
77432;SDS011;66752;48.576;8.876;2023-03-31T01:11:30;5.88;;;2.67;;
77432;SDS011;66752;48.576;8.876;2023-03-31T01:13:56;7.50;;;2.33;;
77432;SDS011;66752;48.576;8.876;2023-03-31T01:16:23;8.10;;;2.45;;
77432;SDS011;66752;48.576;8.876;2023-03-31T01:18:49;7.65;;;2.33;;
77432;SDS011;66752;48.576;8.876;2023-03-31T01:24:07;7.72;;;2.60;;
77432;SDS011;66752;48.576;8.876;2023-03-31T01:44:54;8.52;;;2.15;;
77432;SDS011;66752;48.576;8.876;2023-03-31T01:50:03;5.72;;;2.28;;
77432;SDS011;66752;48.576;8.876;2023-03-31T01:54:59;7.45;;;1.88;;
77432;SDS011;66752;48.576;8.876;2023-03-31T02:00:05;6.70;;;2.03;;
77432;SDS011;66752;48.576;8.876;2023-03-31T02:02:53;8.18;;;2.38;;
77432;SDS011;66752;48.576;8.876;2023-03-31T02:05:23;7.75;;;2.35;;
77432;SDS011;66752;48.576;8.876;2023-03-31T02:10:28;4.55;;;1.90;;
77432;SDS011;66752;48.576;8.876;2023-03-31T02:12:56;6.65;;;2.03;;
77432;SDS011;66752;48.576;8.876;2023-03-31T02:15:23;6.25;;;2.63;;
77432;SDS011;66752;48.576;8.876;2023-03-31T02:17:50;7.10;;;2.10;;
77432;SDS011;66752;48.576;8.876;2023-03-31T02:20:19;8.05;;;2.97;;
77432;SDS011;66752;48.576;8.876;2023-03-31T02:22:47;10.35;;;2.40;;
77432;SDS011;66752;48.576;8.876;2023-03-31T02:25:14;11.45;;;2.53;;
77432;SDS011;66752;48.576;8.876;2023-03-31T02:27:42;8.73;;;2.83;;
77432;SDS011;66752;48.576;8.876;2023-03-31T02:30:10;6.07;;;2.20;;
77432;SDS011;66752;48.576;8.876;2023-03-31T02:37:30;8.25;;;2.38;;
77432;SDS011;66752;48.576;8.876;2023-03-31T02:39:57;7.82;;;2.40;;
77432;SDS011;66752;48.576;8.876;2023-03-31T02:42:24;6.07;;;1.80;;
77432;SDS011;66752;48.576;8.876;2023-03-31T02:44:50;5.50;;;2.00;;
77432;SDS011;66752;48.576;8.876;2023-03-31T02:47:17;4.60;;;1.90;;
77432;SDS011;66752;48.576;8.876;2023-03-31T02:49:45;7.88;;;2.20;;
77432;SDS011;66752;48.576;8.876;2023-03-31T02:52:18;8.98;;;2.85;;
77432;SDS011;66752;48.576;8.876;2023-03-31T02:54:53;5.15;;;2.05;;
77432;SDS011;66752;48.576;8.876;2023-03-31T03:13:29;6.90;;;2.20;;
77432;SDS011;66752;48.576;8.876;2023-03-31T03:15:36;7.70;;;2.45;;
77432;SDS011;66752;48.576;8.876;2023-03-31T03:18:05;10.55;;;2.47;;
77432;SDS011;66752;48.576;8.876;2023-03-31T03:20:31;5.97;;;1.92;;
77432;SDS011;66752;48.576;8.876;2023-03-31T03:22:58;6.60;;;2.45;;
77432;SDS011;66752;48.576;8.876;2023-03-31T03:25:24;9.35;;;3.42;;
77432;SDS011;66752;48.576;8.876;2023-03-31T03:27:50;8.25;;;2.65;;
77432;SDS011;66752;48.576;8.876;2023-03-31T03:30:17;8.10;;;2.63;;
77432;SDS011;66752;48.576;8.876;2023-03-31T03:32:43;6.97;;;3.22;;
77432;SDS011;66752;48.576;8.876;2023-03-31T03:35:10;7.78;;;2.60;;
77432;SDS011;66752;48.576;8.876;2023-03-31T03:37:36;5.57;;;2.40;;
77432;SDS011;66752;48.576;8.876;2023-03-31T03:40:02;6.50;;;2.45;;
77432;SDS011;66752;48.576;8.876;2023-03-31T03:42:29;5.57;;;2.40;;
77432;SDS011;66752;48.576;8.876;2023-03-31T03:44:55;7.45;;;2.60;;
77432;SDS011;66752;48.576;8.876;2023-03-31T03:47:21;8.10;;;3.45;;
77432;SDS011;66752;48.576;8.876;2023-03-31T03:49:47;8.82;;;3.00;;
77432;SDS011;66752;48.576;8.876;2023-03-31T03:52:13;10.02;;;3.22;;
77432;SDS011;66752;48.576;8.876;2023-03-31T03:54:39;10.00;;;3.30;;
77432;SDS011;66752;48.576;8.876;2023-03-31T03:57:05;5.53;;;2.88;;
77432;SDS011;66752;48.576;8.876;2023-03-31T03:59:32;6.05;;;2.75;;
77432;SDS011;66752;48.576;8.876;2023-03-31T04:01:57;7.47;;;3.05;;
77432;SDS011;66752;48.576;8.876;2023-03-31T04:04:23;7.38;;;3.40;;
77432;SDS011;66752;48.576;8.876;2023-03-31T04:06:49;6.50;;;3.08;;
77432;SDS011;66752;48.576;8.876;2023-03-31T04:09:15;9.18;;;3.03;;
77432;SDS011;66752;48.576;8.876;2023-03-31T04:11:41;7.00;;;3.45;;
77432;SDS011;66752;48.576;8.876;2023-03-31T04:14:07;14.45;;;3.92;;
77432;SDS011;66752;48.576;8.876;2023-03-31T04:16:33;5.72;;;3.50;;
77432;SDS011;66752;48.576;8.876;2023-03-31T04:18:59;8.80;;;4.35;;
77432;SDS011;66752;48.576;8.876;2023-03-31T04:21:29;8.30;;;3.75;;
77432;SDS011;66752;48.576;8.876;2023-03-31T04:23:59;6.53;;;3.47;;
77432;SDS011;66752;48.576;8.876;2023-03-31T04:26:32;7.90;;;3.33;;
77432;SDS011;66752;48.576;8.876;2023-03-31T04:29:08;8.10;;;3.10;;
77432;SDS011;66752;48.576;8.876;2023-03-31T04:31:36;7.80;;;3.05;;
77432;SDS011;66752;48.576;8.876;2023-03-31T04:34:08;7.47;;;2.78;;
77432;SDS011;66752;48.576;8.876;2023-03-31T04:36:37;7.75;;;2.80;;
77432;SDS011;66752;48.576;8.876;2023-03-31T04:39:06;5.90;;;2.90;;
77432;SDS011;66752;48.576;8.876;2023-03-31T04:41:34;9.27;;;3.22;;
77432;SDS011;66752;48.576;8.876;2023-03-31T04:44:00;6.28;;;2.72;;
77432;SDS011;66752;48.576;8.876;2023-03-31T04:46:26;7.45;;;2.92;;
77432;SDS011;66752;48.576;8.876;2023-03-31T04:48:52;7.63;;;3.33;;
77432;SDS011;66752;48.576;8.876;2023-03-31T04:51:18;8.05;;;3.08;;
77432;SDS011;66752;48.576;8.876;2023-03-31T04:53:44;9.45;;;3.08;;
77432;SDS011;66752;48.576;8.876;2023-03-31T04:56:10;9.57;;;3.72;;
77432;SDS011;66752;48.576;8.876;2023-03-31T04:58:37;8.93;;;3.05;;
77432;SDS011;66752;48.576;8.876;2023-03-31T05:01:03;7.40;;;3.10;;
77432;SDS011;66752;48.576;8.876;2023-03-31T05:03:33;15.27;;;5.20;;
77432;SDS011;66752;48.576;8.876;2023-03-31T05:05:59;9.98;;;3.55;;
77432;SDS011;66752;48.576;8.876;2023-03-31T05:08:25;11.68;;;3.28;;
77432;SDS011;66752;48.576;8.876;2023-03-31T05:10:51;6.63;;;2.95;;
77432;SDS011;66752;48.576;8.876;2023-03-31T05:13:17;8.77;;;3.80;;
77432;SDS011;66752;48.576;8.876;2023-03-31T05:15:44;7.13;;;3.22;;
77432;SDS011;66752;48.576;8.876;2023-03-31T05:18:11;8.05;;;3.25;;
77432;SDS011;66752;48.576;8.876;2023-03-31T05:20:37;8.48;;;3.13;;
77432;SDS011;66752;48.576;8.876;2023-03-31T05:23:03;13.15;;;4.50;;
77432;SDS011;66752;48.576;8.876;2023-03-31T05:25:30;11.25;;;4.90;;
77432;SDS011;66752;48.576;8.876;2023-03-31T05:27:57;12.40;;;5.93;;
77432;SDS011;66752;48.576;8.876;2023-03-31T05:30:24;8.68;;;4.55;;
77432;SDS011;66752;48.576;8.876;2023-03-31T05:32:50;8.68;;;4.45;;
77432;SDS011;66752;48.576;8.876;2023-03-31T05:35:16;8.50;;;4.30;;
77432;SDS011;66752;48.576;8.876;2023-03-31T05:37:42;10.73;;;4.85;;
77432;SDS011;66752;48.576;8.876;2023-03-31T05:40:08;9.65;;;4.57;;
77432;SDS011;66752;48.576;8.876;2023-03-31T05:42:35;12.35;;;4.82;;
77432;SDS011;66752;48.576;8.876;2023-03-31T05:45:01;9.48;;;4.45;;
77432;SDS011;66752;48.576;8.876;2023-03-31T05:47:28;10.10;;;4.15;;
77432;SDS011;66752;48.576;8.876;2023-03-31T05:49:54;11.80;;;4.47;;
77432;SDS011;66752;48.576;8.876;2023-03-31T05:52:20;9.02;;;4.78;;
77432;SDS011;66752;48.576;8.876;2023-03-31T05:54:46;8.50;;;4.95;;
77432;SDS011;66752;48.576;8.876;2023-03-31T05:57:12;9.18;;;4.90;;
77432;SDS011;66752;48.576;8.876;2023-03-31T05:59:38;11.57;;;4.70;;
77432;SDS011;66752;48.576;8.876;2023-03-31T06:02:06;9.82;;;4.72;;
77432;SDS011;66752;48.576;8.876;2023-03-31T06:04:32;12.60;;;4.55;;
77432;SDS011;66752;48.576;8.876;2023-03-31T06:06:58;10.20;;;5.65;;
77432;SDS011;66752;48.576;8.876;2023-03-31T06:09:24;11.50;;;5.10;;
77432;SDS011;66752;48.576;8.876;2023-03-31T06:11:50;8.73;;;5.80;;
77432;SDS011;66752;48.576;8.876;2023-03-31T06:14:16;12.10;;;5.90;;
77432;SDS011;66752;48.576;8.876;2023-03-31T06:16:42;10.68;;;6.32;;
77432;SDS011;66752;48.576;8.876;2023-03-31T06:19:11;12.90;;;6.80;;
77432;SDS011;66752;48.576;8.876;2023-03-31T06:21:37;20.67;;;8.43;;
77432;SDS011;66752;48.576;8.876;2023-03-31T06:24:03;15.02;;;5.65;;
77432;SDS011;66752;48.576;8.876;2023-03-31T06:26:29;13.05;;;5.20;;
77432;SDS011;66752;48.576;8.876;2023-03-31T06:28:55;12.07;;;4.65;;
77432;SDS011;66752;48.576;8.876;2023-03-31T06:31:22;11.23;;;4.95;;
77432;SDS011;66752;48.576;8.876;2023-03-31T06:33:48;10.75;;;4.82;;
77432;SDS011;66752;48.576;8.876;2023-03-31T06:36:16;12.80;;;5.70;;
77432;SDS011;66752;48.576;8.876;2023-03-31T06:38:42;13.98;;;6.28;;
77432;SDS011;66752;48.576;8.876;2023-03-31T06:41:08;17.85;;;8.02;;
77432;SDS011;66752;48.576;8.876;2023-03-31T06:43:36;16.67;;;8.43;;
77432;SDS011;66752;48.576;8.876;2023-03-31T06:46:02;14.98;;;7.93;;
77432;SDS011;66752;48.576;8.876;2023-03-31T06:48:28;11.55;;;5.85;;
77432;SDS011;66752;48.576;8.876;2023-03-31T06:50:54;18.08;;;6.43;;
77432;SDS011;66752;48.576;8.876;2023-03-31T06:53:20;7.97;;;5.30;;
77432;SDS011;66752;48.576;8.876;2023-03-31T06:55:46;7.60;;;4.13;;
77432;SDS011;66752;48.576;8.876;2023-03-31T06:58:12;8.25;;;3.58;;
77432;SDS011;66752;48.576;8.876;2023-03-31T07:00:39;5.15;;;2.20;;
77432;SDS011;66752;48.576;8.876;2023-03-31T07:03:05;4.65;;;1.67;;
77432;SDS011;66752;48.576;8.876;2023-03-31T07:05:32;4.43;;;1.63;;
77432;SDS011;66752;48.576;8.876;2023-03-31T07:07:59;4.05;;;1.35;;
77432;SDS011;66752;48.576;8.876;2023-03-31T07:10:26;4.28;;;1.40;;
77432;SDS011;66752;48.576;8.876;2023-03-31T07:12:52;4.90;;;1.52;;
77432;SDS011;66752;48.576;8.876;2023-03-31T07:15:18;4.05;;;1.38;;
77432;SDS011;66752;48.576;8.876;2023-03-31T07:17:44;4.45;;;1.70;;
77432;SDS011;66752;48.576;8.876;2023-03-31T07:20:15;3.40;;;1.20;;
77432;SDS011;66752;48.576;8.876;2023-03-31T07:22:46;4.50;;;1.33;;
77432;SDS011;66752;48.576;8.876;2023-03-31T07:25:13;2.80;;;1.08;;
77432;SDS011;66752;48.576;8.876;2023-03-31T07:27:39;4.18;;;1.20;;
77432;SDS011;66752;48.576;8.876;2023-03-31T07:30:06;2.15;;;0.75;;
77432;SDS011;66752;48.576;8.876;2023-03-31T07:32:32;2.70;;;0.90;;
77432;SDS011;66752;48.576;8.876;2023-03-31T07:34:59;3.17;;;0.70;;
77432;SDS011;66752;48.576;8.876;2023-03-31T07:37:25;3.15;;;1.05;;
77432;SDS011;66752;48.576;8.876;2023-03-31T07:39:51;2.38;;;0.80;;
77432;SDS011;66752;48.576;8.876;2023-03-31T07:42:17;4.45;;;1.13;;
77432;SDS011;66752;48.576;8.876;2023-03-31T07:44:43;2.85;;;0.82;;
77432;SDS011;66752;48.576;8.876;2023-03-31T07:47:09;2.47;;;0.90;;
77432;SDS011;66752;48.576;8.876;2023-03-31T07:49:35;2.63;;;0.93;;
77432;SDS011;66752;48.576;8.876;2023-03-31T07:52:01;2.25;;;0.98;;
77432;SDS011;66752;48.576;8.876;2023-03-31T07:54:27;6.03;;;2.05;;
77432;SDS011;66752;48.576;8.876;2023-03-31T07:56:53;3.70;;;1.30;;
77432;SDS011;66752;48.576;8.876;2023-03-31T07:59:20;3.47;;;1.40;;
77432;SDS011;66752;48.576;8.876;2023-03-31T08:01:46;5.68;;;2.47;;
77432;SDS011;66752;48.576;8.876;2023-03-31T08:04:12;5.95;;;2.10;;
77432;SDS011;66752;48.576;8.876;2023-03-31T08:06:38;4.55;;;1.77;;
77432;SDS011;66752;48.576;8.876;2023-03-31T08:09:04;4.47;;;1.75;;
77432;SDS011;66752;48.576;8.876;2023-03-31T08:11:33;3.17;;;1.13;;
77432;SDS011;66752;48.576;8.876;2023-03-31T08:13:59;4.10;;;1.13;;
77432;SDS011;66752;48.576;8.876;2023-03-31T08:16:25;5.05;;;2.08;;
77432;SDS011;66752;48.576;8.876;2023-03-31T08:18:51;2.38;;;0.80;;
77432;SDS011;66752;48.576;8.876;2023-03-31T08:21:17;3.55;;;1.00;;
77432;SDS011;66752;48.576;8.876;2023-03-31T08:23:43;3.22;;;1.02;;
77432;SDS011;66752;48.576;8.876;2023-03-31T08:26:16;3.35;;;1.10;;
77432;SDS011;66752;48.576;8.876;2023-03-31T08:31:08;6.10;;;1.15;;
77432;SDS011;66752;48.576;8.876;2023-03-31T08:33:34;3.30;;;0.93;;
77432;SDS011;66752;48.576;8.876;2023-03-31T08:36:02;3.75;;;1.13;;
77432;SDS011;66752;48.576;8.876;2023-03-31T08:38:28;4.45;;;1.10;;
77432;SDS011;66752;48.576;8.876;2023-03-31T08:40:58;3.22;;;1.00;;
77432;SDS011;66752;48.576;8.876;2023-03-31T08:43:29;3.70;;;1.05;;
77432;SDS011;66752;48.576;8.876;2023-03-31T08:45:56;9.52;;;1.30;;
77432;SDS011;66752;48.576;8.876;2023-03-31T08:48:26;3.40;;;1.10;;
77432;SDS011;66752;48.576;8.876;2023-03-31T08:50:58;4.25;;;0.90;;
77432;SDS011;66752;48.576;8.876;2023-03-31T08:53:27;4.25;;;1.10;;
77432;SDS011;66752;48.576;8.876;2023-03-31T08:55:54;4.53;;;1.00;;
77432;SDS011;66752;48.576;8.876;2023-03-31T08:58:35;3.63;;;1.00;;
77432;SDS011;66752;48.576;8.876;2023-03-31T09:03:30;4.82;;;0.93;;
77432;SDS011;66752;48.576;8.876;2023-03-31T09:06:09;3.40;;;1.10;;
77432;SDS011;66752;48.576;8.876;2023-03-31T09:08:40;3.95;;;1.08;;
77432;SDS011;66752;48.576;8.876;2023-03-31T09:18:47;3.88;;;1.15;;
77432;SDS011;66752;48.576;8.876;2023-03-31T09:21:20;4.57;;;1.10;;
77432;SDS011;66752;48.576;8.876;2023-03-31T09:23:50;4.35;;;0.88;;
77432;SDS011;66752;48.576;8.876;2023-03-31T09:26:23;5.05;;;1.10;;
77432;SDS011;66752;48.576;8.876;2023-03-31T09:28:50;4.22;;;1.20;;
77432;SDS011;66752;48.576;8.876;2023-03-31T09:31:18;3.75;;;1.15;;
77432;SDS011;66752;48.576;8.876;2023-03-31T09:33:45;6.72;;;1.00;;
77432;SDS011;66752;48.576;8.876;2023-03-31T09:36:18;4.75;;;1.33;;
77432;SDS011;66752;48.576;8.876;2023-03-31T09:38:46;6.95;;;1.00;;
77432;SDS011;66752;48.576;8.876;2023-03-31T09:41:13;3.70;;;1.13;;
77432;SDS011;66752;48.576;8.876;2023-03-31T09:43:40;6.13;;;1.30;;
77432;SDS011;66752;48.576;8.876;2023-03-31T09:46:17;6.38;;;1.52;;
77432;SDS011;66752;48.576;8.876;2023-03-31T09:49:26;3.50;;;0.85;;
77432;SDS011;66752;48.576;8.876;2023-03-31T09:51:33;4.85;;;1.33;;
77432;SDS011;66752;48.576;8.876;2023-03-31T09:56:49;7.68;;;1.40;;
77432;SDS011;66752;48.576;8.876;2023-03-31T09:59:33;4.18;;;1.40;;
77432;SDS011;66752;48.576;8.876;2023-03-31T10:02:01;4.78;;;1.20;;
77432;SDS011;66752;48.576;8.876;2023-03-31T10:04:29;9.05;;;1.85;;
77432;SDS011;66752;48.576;8.876;2023-03-31T10:06:56;6.68;;;1.30;;
77432;SDS011;66752;48.576;8.876;2023-03-31T10:09:24;4.93;;;1.20;;
77432;SDS011;66752;48.576;8.876;2023-03-31T10:11:54;5.90;;;1.55;;
77432;SDS011;66752;48.576;8.876;2023-03-31T10:14:25;7.60;;;1.70;;
77432;SDS011;66752;48.576;8.876;2023-03-31T10:16:53;6.50;;;1.50;;
77432;SDS011;66752;48.576;8.876;2023-03-31T10:21:54;5.32;;;1.40;;
77432;SDS011;66752;48.576;8.876;2023-03-31T10:24:20;6.53;;;1.30;;
77432;SDS011;66752;48.576;8.876;2023-03-31T10:26:47;5.10;;;1.20;;
77432;SDS011;66752;48.576;8.876;2023-03-31T10:29:14;6.05;;;1.45;;
77432;SDS011;66752;48.576;8.876;2023-03-31T10:31:43;8.30;;;1.50;;
77432;SDS011;66752;48.576;8.876;2023-03-31T10:34:11;6.43;;;1.13;;
77432;SDS011;66752;48.576;8.876;2023-03-31T10:36:43;6.30;;;1.02;;
77432;SDS011;66752;48.576;8.876;2023-03-31T10:39:11;3.72;;;0.90;;
77432;SDS011;66752;48.576;8.876;2023-03-31T10:41:38;7.53;;;1.35;;
77432;SDS011;66752;48.576;8.876;2023-03-31T10:44:05;8.23;;;1.58;;
77432;SDS011;66752;48.576;8.876;2023-03-31T10:52:16;7.78;;;1.65;;
77432;SDS011;66752;48.576;8.876;2023-03-31T10:54:33;5.80;;;1.80;;
77432;SDS011;66752;48.576;8.876;2023-03-31T11:04:43;6.30;;;0.98;;
77432;SDS011;66752;48.576;8.876;2023-03-31T11:07:33;5.47;;;1.33;;
77432;SDS011;66752;48.576;8.876;2023-03-31T11:10:05;7.28;;;1.42;;
77432;SDS011;66752;48.576;8.876;2023-03-31T11:25:59;4.18;;;0.63;;
77432;SDS011;66752;48.576;8.876;2023-03-31T11:28:47;4.50;;;0.70;;
77432;SDS011;66752;48.576;8.876;2023-03-31T11:41:32;2.00;;;1.02;;
77432;SDS011;66752;48.576;8.876;2023-03-31T11:44:01;3.47;;;0.52;;
77432;SDS011;66752;48.576;8.876;2023-03-31T11:49:19;1.15;;;0.35;;
77432;SDS011;66752;48.576;8.876;2023-03-31T11:51:49;2.63;;;0.50;;
77432;SDS011;66752;48.576;8.876;2023-03-31T11:54:22;1.13;;;0.60;;
77432;SDS011;66752;48.576;8.876;2023-03-31T11:56:49;1.70;;;0.45;;
77432;SDS011;66752;48.576;8.876;2023-03-31T11:59:16;3.50;;;0.60;;
77432;SDS011;66752;48.576;8.876;2023-03-31T12:01:44;0.98;;;0.22;;
77432;SDS011;66752;48.576;8.876;2023-03-31T12:06:42;2.95;;;0.90;;
77432;SDS011;66752;48.576;8.876;2023-03-31T12:09:21;5.80;;;0.80;;
77432;SDS011;66752;48.576;8.876;2023-03-31T12:11:59;3.10;;;0.40;;
77432;SDS011;66752;48.576;8.876;2023-03-31T12:14:42;1.85;;;0.98;;
77432;SDS011;66752;48.576;8.876;2023-03-31T12:17:10;1.55;;;0.45;;
77432;SDS011;66752;48.576;8.876;2023-03-31T12:19:43;2.10;;;0.50;;
77432;SDS011;66752;48.576;8.876;2023-03-31T12:22:18;1.73;;;0.40;;
77432;SDS011;66752;48.576;8.876;2023-03-31T12:24:45;3.20;;;0.52;;
77432;SDS011;66752;48.576;8.876;2023-03-31T12:27:24;1.25;;;0.28;;
77432;SDS011;66752;48.576;8.876;2023-03-31T12:29:59;1.85;;;0.30;;
77432;SDS011;66752;48.576;8.876;2023-03-31T12:32:27;1.13;;;0.50;;
77432;SDS011;66752;48.576;8.876;2023-03-31T12:50:08;4.45;;;0.93;;
77432;SDS011;66752;48.576;8.876;2023-03-31T12:55:54;4.75;;;0.93;;
77432;SDS011;66752;48.576;8.876;2023-03-31T13:08:58;3.63;;;0.75;;
77432;SDS011;66752;48.576;8.876;2023-03-31T13:14:21;3.95;;;0.70;;
77432;SDS011;66752;48.576;8.876;2023-03-31T13:16:48;8.23;;;1.35;;
77432;SDS011;66752;48.576;8.876;2023-03-31T13:22:32;5.18;;;1.23;;
77432;SDS011;66752;48.576;8.876;2023-03-31T13:27:47;5.82;;;0.93;;
77432;SDS011;66752;48.576;8.876;2023-03-31T13:33:02;4.32;;;1.05;;
77432;SDS011;66752;48.576;8.876;2023-03-31T13:35:29;2.35;;;0.70;;
77432;SDS011;66752;48.576;8.876;2023-03-31T13:38:03;1.98;;;0.50;;
77432;SDS011;66752;48.576;8.876;2023-03-31T13:45:52;0.65;;;0.20;;
77432;SDS011;66752;48.576;8.876;2023-03-31T13:53:56;0.70;;;0.35;;
77432;SDS011;66752;48.576;8.876;2023-03-31T13:59:04;1.50;;;1.02;;
77432;SDS011;66752;48.576;8.876;2023-03-31T14:06:32;1.65;;;0.57;;
77432;SDS011;66752;48.576;8.876;2023-03-31T14:09:11;2.17;;;0.70;;
77432;SDS011;66752;48.576;8.876;2023-03-31T14:11:40;1.63;;;0.60;;
77432;SDS011;66752;48.576;8.876;2023-03-31T14:14:13;1.15;;;0.35;;
77432;SDS011;66752;48.576;8.876;2023-03-31T14:16:43;1.75;;;0.50;;
77432;SDS011;66752;48.576;8.876;2023-03-31T14:24:43;2.13;;;0.47;;
77432;SDS011;66752;48.576;8.876;2023-03-31T14:37:37;4.03;;;0.75;;
77432;SDS011;66752;48.576;8.876;2023-03-31T14:40:03;1.05;;;0.57;;
77432;SDS011;66752;48.576;8.876;2023-03-31T14:42:39;5.65;;;0.80;;
77432;SDS011;66752;48.576;8.876;2023-03-31T14:45:06;1.55;;;0.32;;
77432;SDS011;66752;48.576;8.876;2023-03-31T14:47:40;2.20;;;0.68;;
77432;SDS011;66752;48.576;8.876;2023-03-31T14:50:14;3.88;;;1.13;;
77432;SDS011;66752;48.576;8.876;2023-03-31T14:52:45;1.60;;;0.40;;
77432;SDS011;66752;48.576;8.876;2023-03-31T14:55:14;2.90;;;0.70;;
77432;SDS011;66752;48.576;8.876;2023-03-31T14:57:41;4.45;;;0.70;;
77432;SDS011;66752;48.576;8.876;2023-03-31T15:00:13;0.75;;;0.32;;
77432;SDS011;66752;48.576;8.876;2023-03-31T15:02:41;2.67;;;0.50;;
77432;SDS011;66752;48.576;8.876;2023-03-31T15:05:08;3.83;;;0.63;;
77432;SDS011;66752;48.576;8.876;2023-03-31T15:07:35;2.97;;;0.70;;
77432;SDS011;66752;48.576;8.876;2023-03-31T15:10:02;3.97;;;0.90;;
77432;SDS011;66752;48.576;8.876;2023-03-31T15:12:30;3.90;;;0.47;;
77432;SDS011;66752;48.576;8.876;2023-03-31T15:14:57;2.83;;;0.60;;
77432;SDS011;66752;48.576;8.876;2023-03-31T15:17:26;1.30;;;0.45;;
77432;SDS011;66752;48.576;8.876;2023-03-31T15:19:53;3.58;;;1.08;;
77432;SDS011;66752;48.576;8.876;2023-03-31T15:22:21;2.33;;;0.50;;
77432;SDS011;66752;48.576;8.876;2023-03-31T15:24:47;2.20;;;0.57;;
77432;SDS011;66752;48.576;8.876;2023-03-31T15:29:54;2.28;;;0.73;;
77432;SDS011;66752;48.576;8.876;2023-03-31T15:34:51;5.72;;;1.30;;
77432;SDS011;66752;48.576;8.876;2023-03-31T15:37:24;2.13;;;0.82;;
77432;SDS011;66752;48.576;8.876;2023-03-31T15:39:51;3.20;;;0.80;;
77432;SDS011;66752;48.576;8.876;2023-03-31T15:42:20;3.05;;;0.70;;
77432;SDS011;66752;48.576;8.876;2023-03-31T15:44:46;2.85;;;0.90;;
77432;SDS011;66752;48.576;8.876;2023-03-31T15:47:16;3.72;;;1.20;;
77432;SDS011;66752;48.576;8.876;2023-03-31T15:49:50;2.92;;;0.60;;
77432;SDS011;66752;48.576;8.876;2023-03-31T15:52:20;2.17;;;0.60;;
77432;SDS011;66752;48.576;8.876;2023-03-31T15:54:46;2.75;;;0.70;;
77432;SDS011;66752;48.576;8.876;2023-03-31T15:57:13;5.68;;;1.00;;
77432;SDS011;66752;48.576;8.876;2023-03-31T15:59:44;5.78;;;1.05;;
77432;SDS011;66752;48.576;8.876;2023-03-31T16:02:13;2.33;;;0.70;;
77432;SDS011;66752;48.576;8.876;2023-03-31T16:04:40;4.15;;;0.80;;
77432;SDS011;66752;48.576;8.876;2023-03-31T16:07:07;4.20;;;0.93;;
77432;SDS011;66752;48.576;8.876;2023-03-31T16:12:09;2.95;;;0.90;;
77432;SDS011;66752;48.576;8.876;2023-03-31T16:14:37;6.63;;;1.20;;
77432;SDS011;66752;48.576;8.876;2023-03-31T16:17:09;4.35;;;1.27;;
77432;SDS011;66752;48.576;8.876;2023-03-31T16:19:43;5.20;;;1.48;;
77432;SDS011;66752;48.576;8.876;2023-03-31T16:22:15;5.63;;;1.30;;
77432;SDS011;66752;48.576;8.876;2023-03-31T16:24:42;8.07;;;3.15;;
77432;SDS011;66752;48.576;8.876;2023-03-31T16:27:08;8.68;;;1.63;;
77432;SDS011;66752;48.576;8.876;2023-03-31T16:29:34;4.10;;;1.70;;
77432;SDS011;66752;48.576;8.876;2023-03-31T16:32:11;8.27;;;2.28;;
77432;SDS011;66752;48.576;8.876;2023-03-31T16:34:50;4.28;;;0.93;;
77432;SDS011;66752;48.576;8.876;2023-03-31T16:39:43;2.65;;;0.70;;
77432;SDS011;66752;48.576;8.876;2023-03-31T16:42:09;4.15;;;0.95;;
77432;SDS011;66752;48.576;8.876;2023-03-31T16:44:35;4.30;;;1.20;;
77432;SDS011;66752;48.576;8.876;2023-03-31T16:47:00;4.20;;;0.93;;
77432;SDS011;66752;48.576;8.876;2023-03-31T16:49:26;3.05;;;0.80;;
77432;SDS011;66752;48.576;8.876;2023-03-31T16:51:52;1.77;;;0.52;;
77432;SDS011;66752;48.576;8.876;2023-03-31T16:54:18;2.95;;;0.80;;
77432;SDS011;66752;48.576;8.876;2023-03-31T16:56:45;2.25;;;0.75;;
77432;SDS011;66752;48.576;8.876;2023-03-31T16:59:11;2.53;;;0.80;;
77432;SDS011;66752;48.576;8.876;2023-03-31T17:01:38;2.28;;;0.70;;
77432;SDS011;66752;48.576;8.876;2023-03-31T17:04:04;2.58;;;0.80;;
77432;SDS011;66752;48.576;8.876;2023-03-31T17:06:30;2.13;;;0.65;;
77432;SDS011;66752;48.576;8.876;2023-03-31T17:08:55;1.88;;;0.80;;
77432;SDS011;66752;48.576;8.876;2023-03-31T17:11:22;3.25;;;0.80;;
77432;SDS011;66752;48.576;8.876;2023-03-31T17:13:47;3.10;;;0.70;;
77432;SDS011;66752;48.576;8.876;2023-03-31T17:16:13;2.05;;;0.82;;
77432;SDS011;66752;48.576;8.876;2023-03-31T17:18:41;2.53;;;0.75;;
77432;SDS011;66752;48.576;8.876;2023-03-31T17:21:11;2.25;;;0.52;;
77432;SDS011;66752;48.576;8.876;2023-03-31T17:23:37;3.67;;;0.93;;
77432;SDS011;66752;48.576;8.876;2023-03-31T17:26:04;2.63;;;0.90;;
77432;SDS011;66752;48.576;8.876;2023-03-31T17:28:31;3.70;;;1.00;;
77432;SDS011;66752;48.576;8.876;2023-03-31T17:30:57;2.33;;;0.90;;
77432;SDS011;66752;48.576;8.876;2023-03-31T17:33:24;4.32;;;1.10;;
77432;SDS011;66752;48.576;8.876;2023-03-31T17:35:58;3.55;;;1.27;;
77432;SDS011;66752;48.576;8.876;2023-03-31T17:38:24;7.15;;;2.47;;
77432;SDS011;66752;48.576;8.876;2023-03-31T17:40:50;3.40;;;0.80;;
77432;SDS011;66752;48.576;8.876;2023-03-31T17:43:18;5.93;;;1.23;;
77432;SDS011;66752;48.576;8.876;2023-03-31T17:45:44;3.67;;;1.08;;
77432;SDS011;66752;48.576;8.876;2023-03-31T17:48:10;5.40;;;1.00;;
77432;SDS011;66752;48.576;8.876;2023-03-31T17:50:36;5.80;;;1.13;;
77432;SDS011;66752;48.576;8.876;2023-03-31T17:53:02;4.85;;;1.30;;
77432;SDS011;66752;48.576;8.876;2023-03-31T17:55:33;3.80;;;1.20;;
77432;SDS011;66752;48.576;8.876;2023-03-31T17:57:59;7.65;;;1.92;;
77432;SDS011;66752;48.576;8.876;2023-03-31T18:00:25;4.60;;;1.20;;
77432;SDS011;66752;48.576;8.876;2023-03-31T18:05:19;5.78;;;2.20;;
77432;SDS011;66752;48.576;8.876;2023-03-31T18:07:45;5.13;;;1.30;;
77432;SDS011;66752;48.576;8.876;2023-03-31T18:10:11;7.40;;;1.63;;